createdAt,value
2023-04-08T00:00:25.371Z,1413.00
2023-04-08T00:01:25.379Z,1374.00
2023-04-08T00:02:25.573Z,1401.00
2023-04-08T00:03:25.647Z,1387.00
2023-04-08T00:04:25.678Z,1362.00
2023-04-08T00:05:25.504Z,1390.00
2023-04-08T00:06:25.512Z,1339.00
2023-04-08T00:07:25.521Z,1402.00
2023-04-08T00:08:25.541Z,1408.00
2023-04-08T00:09:25.577Z,1431.00
2023-04-08T00:10:25.591Z,1433.00
2023-04-08T00:11:25.649Z,1401.00
2023-04-08T00:12:25.661Z,1424.00
2023-04-08T00:13:25.702Z,1422.00
2023-04-08T00:14:25.730Z,1367.00
2023-04-08T00:15:25.772Z,1378.00
2023-04-08T00:16:25.772Z,1452.00
2023-04-08T00:17:25.833Z,1435.00
2023-04-08T00:18:25.820Z,1361.00
2023-04-08T00:19:25.827Z,1415.00
2023-04-08T00:20:25.850Z,1402.00
2023-04-08T00:21:25.873Z,1456.00
2023-04-08T00:22:25.901Z,1457.00
2023-04-08T00:23:25.919Z,1464.00
2023-04-08T00:24:25.905Z,1477.00
2023-04-08T00:25:26.016Z,1417.00
2023-04-08T00:26:25.943Z,1454.00
2023-04-08T00:27:25.973Z,1402.00
2023-04-08T00:28:25.977Z,1470.00
2023-04-08T00:29:25.975Z,1437.00
2023-04-08T00:30:26.001Z,1424.00
2023-04-08T00:31:26.094Z,1388.00
2023-04-08T00:32:26.035Z,1428.00
2023-04-08T00:33:26.020Z,1460.00
2023-04-08T00:34:26.071Z,1444.00
2023-04-08T00:35:26.132Z,1453.00
2023-04-08T00:36:26.137Z,1460.00
2023-04-08T00:37:26.143Z,1497.00
2023-04-08T00:38:26.197Z,1399.00
2023-04-08T00:39:26.214Z,1426.00
2023-04-08T00:40:26.238Z,1460.00
2023-04-08T00:41:26.253Z,1479.00
2023-04-08T00:42:26.273Z,1460.00
2023-04-08T00:43:26.309Z,1377.00
2023-04-08T00:44:26.316Z,1374.00
2023-04-08T00:45:26.319Z,1307.00
2023-04-08T00:46:26.396Z,1411.00
2023-04-08T00:47:26.409Z,1411.00
2023-04-08T00:48:26.439Z,1372.00
2023-04-08T00:49:26.454Z,1340.00
2023-04-08T00:50:26.494Z,1387.00
2023-04-08T00:51:26.488Z,1326.00
2023-04-08T00:52:26.556Z,1297.00
2023-04-08T00:53:26.531Z,1286.00
2023-04-08T00:54:26.551Z,1284.00
2023-04-08T00:55:26.573Z,1339.00
2023-04-08T00:56:26.633Z,1316.00
2023-04-08T00:57:26.647Z,1353.00
2023-04-08T00:58:26.648Z,1390.00
2023-04-08T00:59:26.655Z,1330.00
2023-04-08T01:00:26.672Z,1338.00
2023-04-08T01:01:26.708Z,1294.00
2023-04-08T01:02:26.975Z,1328.00
2023-04-08T01:03:26.753Z,1331.00
2023-04-08T01:04:26.734Z,1258.00
2023-04-08T01:05:26.817Z,1257.00
2023-04-08T01:06:26.752Z,1260.00
2023-04-08T01:07:26.761Z,1258.00
2023-04-08T01:08:26.769Z,1246.00
2023-04-08T01:09:26.795Z,1233.00
2023-04-08T01:10:26.838Z,1281.00
2023-04-08T01:11:26.849Z,1251.00
2023-04-08T01:12:26.914Z,1250.00
2023-04-08T01:13:26.888Z,1259.00
2023-04-08T01:14:26.934Z,1263.00
2023-04-08T01:15:26.925Z,1261.00
2023-04-08T01:16:27.039Z,1309.00
2023-04-08T01:17:26.981Z,1291.00
2023-04-08T01:18:26.980Z,1252.00
2023-04-08T01:19:26.997Z,1254.00
2023-04-08T01:20:26.964Z,1296.00
2023-04-08T01:21:27.002Z,1305.00
2023-04-08T01:22:27.022Z,1297.00
2023-04-08T01:23:27.048Z,1330.00
2023-04-08T01:24:27.039Z,1300.00
2023-04-08T01:25:27.091Z,1287.00
2023-04-08T01:26:27.099Z,1294.00
2023-04-08T01:27:27.127Z,1300.00
2023-04-08T01:28:27.107Z,1306.00
2023-04-08T01:29:27.136Z,1329.00
2023-04-08T01:30:27.145Z,1311.00
2023-04-08T01:31:27.212Z,1299.00
2023-04-08T01:32:27.273Z,1301.00
2023-04-08T01:33:27.208Z,1311.00
2023-04-08T01:34:27.219Z,1328.00
2023-04-08T01:35:27.250Z,1362.00
2023-04-08T01:36:27.293Z,1331.00
2023-04-08T01:37:27.366Z,1360.00
2023-04-08T01:38:27.320Z,1397.00
2023-04-08T01:39:27.334Z,1345.00
2023-04-08T01:40:27.340Z,1352.00
2023-04-08T01:41:27.366Z,1337.00
2023-04-08T01:42:27.380Z,1324.00
2023-04-08T01:43:27.373Z,1337.00
2023-04-08T01:44:27.384Z,1314.00
2023-04-08T01:45:27.394Z,1330.00
2023-04-08T01:46:27.450Z,1314.00
2023-04-08T01:47:27.428Z,1375.00
2023-04-08T01:48:27.410Z,1365.00
2023-04-08T01:49:27.433Z,1353.00
2023-04-08T01:50:27.442Z,1365.00
2023-04-08T01:51:27.462Z,1356.00
2023-04-08T01:52:27.480Z,1352.00
2023-04-08T01:53:27.516Z,1344.00
2023-04-08T01:54:27.495Z,1422.00
2023-04-08T01:55:27.506Z,1421.00
2023-04-08T01:56:27.543Z,1361.00
2023-04-08T01:57:27.555Z,1384.00
2023-04-08T01:58:27.576Z,1332.00
2023-04-08T01:59:27.578Z,1413.00
2023-04-08T02:00:27.610Z,1408.00
2023-04-08T02:01:27.685Z,1373.00
2023-04-08T02:02:27.777Z,1316.00
2023-04-08T02:03:28.016Z,1308.00
2023-04-08T02:04:27.764Z,1379.00
2023-04-08T02:05:27.731Z,1367.00
2023-04-08T02:06:27.737Z,1369.00
2023-04-08T02:07:27.847Z,1345.00
2023-04-08T02:08:27.784Z,1345.00
2023-04-08T02:09:27.816Z,1365.00
2023-04-08T02:10:27.821Z,1311.00
2023-04-08T02:11:27.828Z,1397.00
2023-04-08T02:12:27.838Z,1377.00
2023-04-08T02:13:27.850Z,1343.00
2023-04-08T02:14:27.868Z,1291.00
2023-04-08T02:15:27.901Z,1273.00
2023-04-08T02:16:27.948Z,1362.00
2023-04-08T02:17:28.000Z,1391.00
2023-04-08T02:18:27.945Z,1413.00
2023-04-08T02:19:27.920Z,1374.00
2023-04-08T02:20:27.948Z,1402.00
2023-04-08T02:21:27.989Z,1325.00
2023-04-08T02:22:28.001Z,1306.00
2023-04-08T02:23:27.994Z,1335.00
2023-04-08T02:24:28.019Z,1349.00
2023-04-08T02:25:28.025Z,1326.00
2023-04-08T02:26:28.036Z,1378.00
2023-04-08T02:27:28.051Z,1372.00
2023-04-08T02:28:28.041Z,1321.00
2023-04-08T02:29:28.033Z,1355.00
2023-04-08T02:30:28.052Z,1336.00
2023-04-08T02:31:28.108Z,1332.00
2023-04-08T02:32:28.121Z,1334.00
2023-04-08T02:33:28.091Z,1269.00
2023-04-08T02:34:28.088Z,1313.00
2023-04-08T02:35:28.124Z,1268.00
2023-04-08T02:36:28.104Z,1302.00
2023-04-08T02:37:28.138Z,1257.00
2023-04-08T02:38:28.128Z,1283.00
2023-04-08T02:39:28.131Z,1318.00
2023-04-08T02:40:28.182Z,1307.00
2023-04-08T02:41:28.131Z,1289.00
2023-04-08T02:42:28.157Z,1296.00
2023-04-08T02:43:28.166Z,1319.00
2023-04-08T02:44:28.163Z,1376.00
2023-04-08T02:45:28.225Z,1348.00
2023-04-08T02:46:28.186Z,1344.00
2023-04-08T02:47:28.224Z,1339.00
2023-04-08T02:48:28.197Z,1356.00
2023-04-08T02:49:28.206Z,1357.00
2023-04-08T02:50:28.221Z,1330.00
2023-04-08T02:51:28.209Z,1392.00
2023-04-08T02:52:28.249Z,1397.00
2023-04-08T02:53:28.249Z,1355.00
2023-04-08T02:54:28.242Z,1368.00
2023-04-08T02:55:28.249Z,1405.00
2023-04-08T02:56:28.256Z,1421.00
2023-04-08T02:57:28.288Z,1360.00
2023-04-08T02:58:28.291Z,1402.00
2023-04-08T02:59:28.271Z,1404.00
2023-04-08T03:00:28.297Z,1428.00
2023-04-08T03:01:28.392Z,1431.00
2023-04-08T03:02:28.422Z,1380.00
2023-04-08T03:03:28.317Z,1423.00
2023-04-08T03:04:28.324Z,1409.00
2023-04-08T03:05:28.329Z,1396.00
2023-04-08T03:06:28.355Z,1391.00
2023-04-08T03:07:28.367Z,1410.00
2023-04-08T03:08:28.345Z,1410.00
2023-04-08T03:09:28.368Z,1399.00
2023-04-08T03:10:28.383Z,1395.00
2023-04-08T03:11:28.405Z,1403.00
2023-04-08T03:12:28.421Z,1369.00
2023-04-08T03:13:28.402Z,1387.00
2023-04-08T03:14:28.408Z,1408.00
2023-04-08T03:15:28.425Z,1372.00
2023-04-08T03:16:28.445Z,1350.00
2023-04-08T03:17:28.472Z,1377.00
2023-04-08T03:18:28.412Z,1346.00
2023-04-08T03:19:28.425Z,1387.00
2023-04-08T03:20:28.427Z,1359.00
2023-04-08T03:21:28.407Z,1330.00
2023-04-08T03:22:28.435Z,1341.00
2023-04-08T03:23:28.420Z,1332.00
2023-04-08T03:24:28.417Z,1359.00
2023-04-08T03:25:28.420Z,1374.00
2023-04-08T03:26:28.395Z,1338.00
2023-04-08T03:27:28.397Z,1329.00
2023-04-08T03:28:28.398Z,1281.00
2023-04-08T03:29:28.410Z,1310.00
2023-04-08T03:30:28.412Z,1342.00
2023-04-08T03:31:28.422Z,1342.00
2023-04-08T03:32:28.425Z,1315.00
2023-04-08T03:33:28.407Z,1319.00
2023-04-08T03:34:28.381Z,1363.00
2023-04-08T03:35:28.446Z,1342.00
2023-04-08T03:36:28.408Z,1351.00
2023-04-08T03:37:28.392Z,1320.00
2023-04-08T03:38:28.407Z,1348.00
2023-04-08T03:39:28.407Z,1323.00
2023-04-08T03:40:28.424Z,1301.00
2023-04-08T03:41:28.406Z,1315.00
2023-04-08T03:42:28.407Z,1296.00
2023-04-08T03:43:28.408Z,1323.00
2023-04-08T03:44:28.387Z,1309.00
2023-04-08T03:45:28.402Z,1348.00
2023-04-08T03:46:28.503Z,1326.00
2023-04-08T03:47:28.419Z,1343.00
2023-04-08T03:48:28.425Z,1337.00
2023-04-08T03:49:28.418Z,1322.00
2023-04-08T03:50:28.423Z,1339.00
2023-04-08T03:51:28.448Z,1364.00
2023-04-08T03:52:28.436Z,1325.00
2023-04-08T03:53:28.415Z,1383.00
2023-04-08T03:54:28.410Z,1349.00
2023-04-08T03:55:28.429Z,1284.00
2023-04-08T03:56:28.419Z,1330.00
2023-04-08T03:57:28.440Z,1316.00
2023-04-08T03:58:28.447Z,1313.00
2023-04-08T03:59:28.432Z,1322.00
2023-04-08T04:00:28.432Z,1326.00
2023-04-08T04:01:28.526Z,1303.00
2023-04-08T04:02:28.640Z,1349.00
2023-04-08T04:03:28.582Z,1297.00
2023-04-08T04:04:28.630Z,1369.00
2023-04-08T04:05:28.505Z,1337.00
2023-04-08T04:06:28.522Z,1302.00
2023-04-08T04:07:28.523Z,1312.00
2023-04-08T04:08:28.496Z,1305.00
2023-04-08T04:09:28.505Z,1293.00
2023-04-08T04:10:28.507Z,1302.00
2023-04-08T04:11:28.508Z,1264.00
2023-04-08T04:12:28.518Z,1285.00
2023-04-08T04:13:28.482Z,1289.00
2023-04-08T04:14:28.479Z,1279.00
2023-04-08T04:15:28.494Z,1253.00
2023-04-08T04:16:29.401Z,1261.00
2023-04-08T04:17:28.528Z,1257.00
2023-04-08T04:18:28.538Z,1209.00
2023-04-08T04:19:28.487Z,1239.00
2023-04-08T04:20:28.481Z,1244.00
2023-04-08T04:21:28.496Z,1213.00
2023-04-08T04:22:28.474Z,1145.00
2023-04-08T04:23:28.491Z,1179.00
2023-04-08T04:24:28.466Z,1219.00
2023-04-08T04:25:28.466Z,1238.00
2023-04-08T04:26:28.482Z,1219.00
2023-04-08T04:27:28.493Z,1226.00
2023-04-08T04:28:28.467Z,1240.00
2023-04-08T04:29:28.481Z,1181.00
2023-04-08T04:30:28.476Z,1241.00
2023-04-08T04:31:28.521Z,1292.00
2023-04-08T04:32:28.486Z,1236.00
2023-04-08T04:33:28.493Z,1258.00
2023-04-08T04:34:28.485Z,1255.00
2023-04-08T04:35:28.579Z,1281.00
2023-04-08T04:36:28.492Z,1265.00
2023-04-08T04:37:28.529Z,1284.00
2023-04-08T04:38:28.490Z,1255.00
2023-04-08T04:39:28.495Z,1252.00
2023-04-08T04:40:28.483Z,1287.00
2023-04-08T04:41:28.488Z,1293.00
2023-04-08T04:42:28.502Z,1330.00
2023-04-08T04:43:28.513Z,1331.00
2023-04-08T04:44:28.514Z,1352.00
2023-04-08T04:45:28.501Z,1356.00
2023-04-08T04:46:28.615Z,1363.00
2023-04-08T04:47:28.566Z,1341.00
2023-04-08T04:48:28.518Z,1335.00
2023-04-08T04:49:28.517Z,1373.00
2023-04-08T04:50:28.549Z,1361.00
2023-04-08T04:51:28.539Z,1349.00
2023-04-08T04:52:28.554Z,1353.00
2023-04-08T04:53:28.572Z,1338.00
2023-04-08T04:54:28.576Z,1350.00
2023-04-08T04:55:28.586Z,1403.00
2023-04-08T04:56:28.628Z,1384.00
2023-04-08T04:57:28.611Z,1387.00
2023-04-08T04:58:28.595Z,1388.00
2023-04-08T04:59:28.613Z,1399.00
2023-04-08T05:00:28.641Z,1349.00
2023-04-08T05:01:28.653Z,1344.00
2023-04-08T05:02:28.818Z,1338.00
2023-04-08T05:03:28.692Z,1406.00
2023-04-08T05:04:28.643Z,1369.00
2023-04-08T05:05:28.748Z,1381.00
2023-04-08T05:06:28.629Z,1380.00
2023-04-08T05:07:28.703Z,1382.00
2023-04-08T05:08:28.642Z,1395.00
2023-04-08T05:09:28.655Z,1358.00
2023-04-08T05:10:28.652Z,1387.00
2023-04-08T05:11:28.639Z,1357.00
2023-04-08T05:12:28.655Z,1379.00
2023-04-08T05:13:28.647Z,1321.00
2023-04-08T05:14:28.662Z,1365.00
2023-04-08T05:15:28.707Z,1359.00
2023-04-08T05:16:28.747Z,1348.00
2023-04-08T05:17:28.731Z,1378.00
2023-04-08T05:18:28.725Z,1358.00
2023-04-08T05:19:28.721Z,1357.00
2023-04-08T05:20:28.717Z,1345.00
2023-04-08T05:21:28.739Z,1362.00
2023-04-08T05:22:28.729Z,1354.00
2023-04-08T05:23:28.742Z,1309.00
2023-04-08T05:24:28.729Z,1318.00
2023-04-08T05:25:28.733Z,1339.00
2023-04-08T05:26:28.725Z,1334.00
2023-04-08T05:27:28.775Z,1332.00
2023-04-08T05:28:28.762Z,1317.00
2023-04-08T05:29:28.752Z,1318.00
2023-04-08T05:30:28.738Z,1327.00
2023-04-08T05:31:28.760Z,1334.00
2023-04-08T05:32:28.772Z,1346.00
2023-04-08T05:33:28.756Z,1365.00
2023-04-08T05:34:28.760Z,1342.00
2023-04-08T05:35:28.836Z,1329.00
2023-04-08T05:36:28.780Z,1348.00
2023-04-08T05:37:28.791Z,1349.00
2023-04-08T05:38:28.797Z,1352.00
2023-04-08T05:39:28.785Z,1367.00
2023-04-08T05:40:28.783Z,1360.00
2023-04-08T05:41:28.805Z,1374.00
2023-04-08T05:42:28.794Z,1346.00
2023-04-08T05:43:28.817Z,1361.00
2023-04-08T05:44:28.796Z,1344.00
2023-04-08T05:45:28.814Z,1343.00
2023-04-08T05:46:28.892Z,1371.00
2023-04-08T05:47:28.873Z,1336.00
2023-04-08T05:48:28.839Z,1357.00
2023-04-08T05:49:28.840Z,1355.00
2023-04-08T05:50:28.852Z,1326.00
2023-04-08T05:51:28.867Z,1338.00
2023-04-08T05:52:28.859Z,1346.00
2023-04-08T05:53:28.882Z,1401.00
2023-04-08T05:54:28.884Z,1394.00
2023-04-08T05:55:28.905Z,1358.00
2023-04-08T05:56:28.916Z,1371.00
2023-04-08T05:57:28.924Z,1391.00
2023-04-08T05:58:28.948Z,1372.00
2023-04-08T05:59:28.973Z,1390.00
2023-04-08T06:00:28.985Z,1391.00
2023-04-08T06:01:29.075Z,1388.00
2023-04-08T06:02:29.112Z,1408.00
2023-04-08T06:03:29.120Z,1410.00
2023-04-08T06:04:29.171Z,1398.00
2023-04-08T06:05:29.034Z,1412.00
2023-04-08T06:06:29.043Z,1430.00
2023-04-08T06:07:29.064Z,1465.00
2023-04-08T06:08:29.064Z,1443.00
2023-04-08T06:09:29.103Z,1404.00
2023-04-08T06:10:29.084Z,1386.00
2023-04-08T06:11:29.112Z,1382.00
2023-04-08T06:12:29.119Z,1396.00
2023-04-08T06:13:29.142Z,1390.00
2023-04-08T06:14:29.148Z,1337.00
2023-04-08T06:15:29.181Z,1340.00
2023-04-08T06:16:29.222Z,1349.00
2023-04-08T06:17:29.318Z,1336.00
2023-04-08T06:18:29.239Z,1361.00
2023-04-08T06:19:29.240Z,1357.00
2023-04-08T06:20:29.299Z,1387.00
2023-04-08T06:21:29.296Z,1350.00
2023-04-08T06:22:29.299Z,1337.00
2023-04-08T06:23:29.328Z,1316.00
2023-04-08T06:24:29.359Z,1301.00
2023-04-08T06:25:29.342Z,1247.00
2023-04-08T06:26:29.359Z,1251.00
2023-04-08T06:27:29.367Z,1276.00
2023-04-08T06:28:29.434Z,1260.00
2023-04-08T06:29:29.403Z,1316.00
2023-04-08T06:30:29.442Z,1307.00
2023-04-08T06:31:29.519Z,1335.00
2023-04-08T06:32:29.598Z,1321.00
2023-04-08T06:33:29.525Z,1311.00
2023-04-08T06:34:29.519Z,1301.00
2023-04-08T06:35:29.677Z,1263.00
2023-04-08T06:36:29.636Z,1275.00
2023-04-08T06:37:29.706Z,1273.00
2023-04-08T06:38:29.736Z,1259.00
2023-04-08T06:39:29.728Z,1311.00
2023-04-08T06:40:29.752Z,1319.00
2023-04-08T06:41:29.776Z,1352.00
2023-04-08T06:42:29.791Z,1357.00
2023-04-08T06:43:29.799Z,1301.00
2023-04-08T06:44:29.800Z,1282.00
2023-04-08T06:45:29.809Z,1293.00
2023-04-08T06:46:29.830Z,1281.00
2023-04-08T06:47:29.909Z,1249.00
2023-04-08T06:48:29.893Z,1247.00
2023-04-08T06:49:29.898Z,1267.00
2023-04-08T06:50:29.914Z,1316.00
2023-04-08T06:51:29.968Z,1347.00
2023-04-08T06:52:29.959Z,1411.00
2023-04-08T06:53:29.963Z,1401.00
2023-04-08T06:54:29.979Z,1406.00
2023-04-08T06:55:29.976Z,1410.00
2023-04-08T06:56:29.982Z,1436.00
2023-04-08T06:57:29.959Z,1379.00
2023-04-08T06:58:29.960Z,1376.00
2023-04-08T06:59:29.977Z,1378.00
2023-04-08T07:00:29.956Z,1432.00
2023-04-08T07:01:30.067Z,1428.00
2023-04-08T07:02:30.057Z,1396.00
2023-04-08T07:03:30.089Z,1400.00
2023-04-08T07:04:30.039Z,1394.00
2023-04-08T07:05:30.091Z,1402.00
2023-04-08T07:06:30.142Z,1371.00
2023-04-08T07:07:30.213Z,1388.00
2023-04-08T07:08:30.293Z,1332.00
2023-04-08T07:09:30.367Z,1338.00
2023-04-08T07:10:30.405Z,1341.00
2023-04-08T07:11:30.444Z,1308.00
2023-04-08T07:12:30.523Z,1309.00
2023-04-08T07:13:30.569Z,1302.00
2023-04-08T07:14:30.647Z,1297.00
2023-04-08T07:15:30.909Z,1315.00
2023-04-08T07:16:30.760Z,1307.00
2023-04-08T07:17:30.860Z,1292.00
2023-04-08T07:18:30.868Z,1285.00
2023-04-08T07:19:30.917Z,1285.00
2023-04-08T07:20:32.216Z,1262.00
2023-04-08T07:21:31.038Z,1258.00
2023-04-08T07:22:31.082Z,1268.00
2023-04-08T07:23:31.152Z,1223.00
2023-04-08T07:24:31.222Z,1235.00
2023-04-08T07:25:31.257Z,1258.00
2023-04-08T07:26:31.318Z,1280.00
2023-04-08T07:27:31.374Z,1258.00
2023-04-08T07:28:31.416Z,1273.00
2023-04-08T07:29:31.476Z,1250.00
2023-04-08T07:30:31.570Z,1221.00
2023-04-08T07:31:31.619Z,1278.00
2023-04-08T07:32:31.669Z,1254.00
2023-04-08T07:33:31.716Z,1255.00
2023-04-08T07:34:31.779Z,1240.00
2023-04-08T07:35:31.873Z,1226.00
2023-04-08T07:36:31.880Z,1234.00
2023-04-08T07:37:31.940Z,1243.00
2023-04-08T07:38:32.008Z,1265.00
2023-04-08T07:39:32.071Z,1241.00
2023-04-08T07:40:32.110Z,1251.00
2023-04-08T07:41:32.181Z,1259.00
2023-04-08T07:42:32.235Z,1231.00
2023-04-08T07:43:32.311Z,1228.00
2023-04-08T07:44:32.351Z,1246.00
2023-04-08T07:45:32.405Z,1249.00
2023-04-08T07:46:32.505Z,1235.00
2023-04-08T07:47:32.608Z,1244.00
2023-04-08T07:48:32.606Z,1235.00
2023-04-08T07:49:32.643Z,1217.00
2023-04-08T07:50:32.688Z,1212.00
2023-04-08T07:51:32.743Z,1193.00
2023-04-08T07:52:32.866Z,1181.00
2023-04-08T07:53:32.857Z,1192.00
2023-04-08T07:54:32.933Z,1165.00
2023-04-08T07:55:32.977Z,1170.00
2023-04-08T07:56:33.048Z,1157.00
2023-04-08T07:57:33.092Z,1160.00
2023-04-08T07:58:33.233Z,1139.00
2023-04-08T07:59:33.288Z,1134.00
2023-04-08T08:00:33.261Z,1097.00
2023-04-08T08:01:33.360Z,1117.00
2023-04-08T08:02:33.455Z,1075.00
2023-04-08T08:03:34.133Z,1085.00
2023-04-08T08:04:33.589Z,1100.00
2023-04-08T08:05:33.533Z,1111.00
2023-04-08T08:06:33.597Z,1109.00
2023-04-08T08:07:33.650Z,1093.00
2023-04-08T08:08:33.678Z,1088.00
2023-04-08T08:09:33.753Z,1081.00
2023-04-08T08:10:33.795Z,1065.00
2023-04-08T08:11:33.845Z,1078.00
2023-04-08T08:12:33.899Z,1066.00
2023-04-08T08:13:33.960Z,1019.00
2023-04-08T08:14:34.015Z,979.00
2023-04-08T08:15:34.136Z,953.00
2023-04-08T08:16:34.152Z,985.00
2023-04-08T08:17:34.166Z,1024.00
2023-04-08T08:18:34.206Z,981.00
2023-04-08T08:19:34.227Z,1011.00
2023-04-08T08:20:34.267Z,966.00
2023-04-08T08:21:34.319Z,972.00
2023-04-08T08:22:36.661Z,989.00
2023-04-08T08:23:35.350Z,990.00
2023-04-08T08:24:34.357Z,991.00
2023-04-08T08:25:34.342Z,978.00
2023-04-08T08:26:34.325Z,932.00
2023-04-08T08:27:34.328Z,971.00
2023-04-08T08:28:34.305Z,939.00
2023-04-08T08:29:34.311Z,949.00
2023-04-08T08:30:34.327Z,998.00
2023-04-08T08:31:34.311Z,990.00
2023-04-08T08:32:34.322Z,1027.00
2023-04-08T08:33:34.275Z,1068.00
2023-04-08T08:34:34.267Z,1087.00
2023-04-08T08:35:34.256Z,1081.00
2023-04-08T08:36:34.907Z,1103.00
2023-04-08T08:37:34.241Z,1098.00
2023-04-08T08:38:34.244Z,1105.00
2023-04-08T08:39:34.221Z,1126.00
2023-04-08T08:40:34.263Z,1068.00
2023-04-08T08:41:34.283Z,1058.00
2023-04-08T08:42:34.437Z,1040.00
2023-04-08T08:43:34.383Z,1029.00
2023-04-08T08:44:34.333Z,1063.00
2023-04-08T08:45:34.378Z,1062.00
2023-04-08T08:46:34.473Z,1032.00
2023-04-08T08:47:34.412Z,1080.00
2023-04-08T08:48:34.410Z,1066.00
2023-04-08T08:49:34.447Z,1099.00
2023-04-08T08:50:34.502Z,1088.00
2023-04-08T08:51:34.478Z,1094.00
2023-04-08T08:52:34.494Z,1105.00
2023-04-08T08:53:36.022Z,1101.00
2023-04-08T08:54:34.546Z,1109.00
2023-04-08T08:55:56.754Z,1091.00
2023-04-08T08:56:35.536Z,1091.00
2023-04-08T08:57:34.518Z,1085.00
2023-04-08T08:58:34.512Z,1071.00
2023-04-08T08:59:34.501Z,1088.00
2023-04-08T09:00:34.855Z,1058.00
2023-04-08T09:01:34.591Z,1071.00
2023-04-08T09:02:34.636Z,1114.00
2023-04-08T09:03:34.621Z,1068.00
2023-04-08T09:04:34.629Z,1046.00
2023-04-08T09:05:34.576Z,1097.00
2023-04-08T09:06:34.464Z,1079.00
2023-04-08T09:07:34.451Z,1074.00
2023-04-08T09:08:34.447Z,1079.00
2023-04-08T09:09:34.435Z,1087.00
2023-04-08T09:10:34.430Z,1074.00
2023-04-08T09:11:34.426Z,1071.00
2023-04-08T09:12:34.398Z,1066.00
2023-04-08T09:13:34.410Z,1067.00
2023-04-08T09:14:34.383Z,1075.00
2023-04-08T09:15:34.376Z,1072.00
2023-04-08T09:16:34.420Z,1057.00
2023-04-08T09:17:34.393Z,1061.00
2023-04-08T09:18:34.367Z,1066.00
2023-04-08T09:19:34.347Z,1069.00
2023-04-08T09:20:34.341Z,1099.00
2023-04-08T09:21:34.340Z,1108.00
2023-04-08T09:22:34.337Z,1105.00
2023-04-08T09:23:34.322Z,1120.00
2023-04-08T09:24:34.317Z,1095.00
2023-04-08T09:25:34.328Z,1091.00
2023-04-08T09:26:34.310Z,1106.00
2023-04-08T09:27:34.289Z,1050.00
2023-04-08T09:28:34.273Z,1065.00
2023-04-08T09:29:35.699Z,1061.00
2023-04-08T09:30:34.262Z,1083.00
2023-04-08T09:31:34.326Z,1058.00
2023-04-08T09:32:34.307Z,1053.00
2023-04-08T09:33:34.252Z,1050.00
2023-04-08T09:34:34.616Z,1040.00
2023-04-08T09:35:34.272Z,1026.00
2023-04-08T09:36:34.245Z,1040.00
2023-04-08T09:37:34.231Z,1031.00
2023-04-08T09:38:34.223Z,1013.00
2023-04-08T09:39:34.225Z,1022.00
2023-04-08T09:40:34.195Z,1017.00
2023-04-08T09:41:34.206Z,1016.00
2023-04-08T09:42:34.197Z,1005.00
2023-04-08T09:43:34.180Z,989.00
2023-04-08T09:44:34.204Z,969.00
2023-04-08T09:45:34.209Z,967.00
2023-04-08T09:46:34.218Z,1000.00
2023-04-08T09:47:34.179Z,969.00
2023-04-08T09:48:34.209Z,960.00
2023-04-08T09:49:34.206Z,960.00
2023-04-08T09:50:34.166Z,960.00
2023-04-08T09:51:34.160Z,989.00
2023-04-08T09:52:34.231Z,972.00
2023-04-08T09:53:34.192Z,926.00
2023-04-08T09:54:34.207Z,926.00
2023-04-08T09:55:34.094Z,936.00
2023-04-08T09:56:34.076Z,946.00
2023-04-08T09:57:34.084Z,911.00
2023-04-08T09:58:34.073Z,911.00
2023-04-08T09:59:34.072Z,926.00
2023-04-08T10:00:34.046Z,906.00
2023-04-08T10:01:34.192Z,948.00
2023-04-08T10:02:34.187Z,908.00
2023-04-08T10:03:34.250Z,892.00
2023-04-08T10:04:34.084Z,905.00
2023-04-08T10:05:34.016Z,876.00
2023-04-08T10:06:33.999Z,851.00
2023-04-08T10:07:34.010Z,883.00
2023-04-08T10:08:34.003Z,879.00
2023-04-08T10:09:33.984Z,871.00
2023-04-08T10:10:34.009Z,852.00
2023-04-08T10:11:33.983Z,882.00
2023-04-08T10:12:33.968Z,895.00
2023-04-08T10:13:33.983Z,877.00
2023-04-08T10:14:33.952Z,831.00
2023-04-08T10:15:33.950Z,833.00
2023-04-08T10:16:33.955Z,802.00
2023-04-08T10:17:33.932Z,828.00
2023-04-08T10:18:33.935Z,813.00
2023-04-08T10:19:33.916Z,842.00
2023-04-08T10:20:33.906Z,852.00
2023-04-08T10:21:33.896Z,837.00
2023-04-08T10:22:33.915Z,840.00
2023-04-08T10:23:34.013Z,839.00
2023-04-08T10:24:33.887Z,816.00
2023-04-08T10:25:33.862Z,789.00
2023-04-08T10:26:33.854Z,787.00
2023-04-08T10:27:33.868Z,760.00
2023-04-08T10:28:33.846Z,734.00
2023-04-08T10:29:33.871Z,735.00
2023-04-08T10:30:33.843Z,763.00
2023-04-08T10:31:33.889Z,710.00
2023-04-08T10:32:33.844Z,658.00
2023-04-08T10:33:33.813Z,706.00
2023-04-08T10:34:33.821Z,699.00
2023-04-08T10:35:33.818Z,720.00
2023-04-08T10:36:33.844Z,697.00
2023-04-08T10:37:33.785Z,739.00
2023-04-08T10:38:33.782Z,702.00
2023-04-08T10:39:33.805Z,689.00
2023-04-08T10:40:33.763Z,685.00
2023-04-08T10:41:33.772Z,669.00
2023-04-08T10:42:33.765Z,673.00
2023-04-08T10:43:33.764Z,651.00
2023-04-08T10:44:33.735Z,647.00
2023-04-08T10:45:33.721Z,651.00
2023-04-08T10:46:33.755Z,652.00
2023-04-08T10:47:33.773Z,632.00
2023-04-08T10:48:33.708Z,650.00
2023-04-08T10:49:33.713Z,638.00
2023-04-08T10:50:33.700Z,635.00
2023-04-08T10:51:33.971Z,641.00
2023-04-08T10:52:33.697Z,636.00
2023-04-08T10:53:33.781Z,643.00
2023-04-08T10:54:33.669Z,633.00
2023-04-08T10:55:33.667Z,628.00
2023-04-08T10:56:33.636Z,623.00
2023-04-08T10:57:33.644Z,599.00
2023-04-08T10:58:33.632Z,613.00
2023-04-08T10:59:33.628Z,621.00
2023-04-08T11:00:33.625Z,603.00
2023-04-08T11:01:33.737Z,604.00
2023-04-08T11:02:33.794Z,599.00
2023-04-08T11:03:33.779Z,593.00
2023-04-08T11:04:33.792Z,600.00
2023-04-08T11:05:33.571Z,603.00
2023-04-08T11:06:33.566Z,592.00
2023-04-08T11:07:33.561Z,598.00
2023-04-08T11:08:33.572Z,600.00
2023-04-08T11:09:33.558Z,609.00
2023-04-08T11:10:33.534Z,595.00
2023-04-08T11:11:33.544Z,595.00
2023-04-08T11:12:33.528Z,587.00
2023-04-08T11:13:33.537Z,599.00
2023-04-08T11:14:33.525Z,588.00
2023-04-08T11:15:33.537Z,584.00
2023-04-08T11:16:33.507Z,575.00
2023-04-08T11:17:33.495Z,555.00
2023-04-08T11:18:33.491Z,566.00
2023-04-08T11:19:33.487Z,563.00
2023-04-08T11:20:33.467Z,589.00
2023-04-08T11:21:33.475Z,583.00
2023-04-08T11:22:33.508Z,599.00
2023-04-08T11:23:33.459Z,597.00
2023-04-08T11:24:33.457Z,573.00
2023-04-08T11:25:33.433Z,565.00
2023-04-08T11:26:33.445Z,562.00
2023-04-08T11:27:33.428Z,581.00
2023-04-08T11:28:33.431Z,586.00
2023-04-08T11:29:33.415Z,574.00
2023-04-08T11:30:33.417Z,554.00
2023-04-08T11:31:33.451Z,568.00
2023-04-08T11:32:33.441Z,553.00
2023-04-08T11:33:33.380Z,546.00
2023-04-08T11:34:33.373Z,531.00
2023-04-08T11:35:33.425Z,541.00
2023-04-08T11:36:33.373Z,561.00
2023-04-08T11:37:33.355Z,539.00
2023-04-08T11:38:33.361Z,541.00
2023-04-08T11:39:33.333Z,552.00
2023-04-08T11:40:33.337Z,532.00
2023-04-08T11:41:33.331Z,544.00
2023-04-08T11:42:33.315Z,535.00
2023-04-08T11:43:33.322Z,521.00
2023-04-08T11:44:33.348Z,520.00
2023-04-08T11:45:33.350Z,522.00
2023-04-08T11:46:33.364Z,519.00
2023-04-08T11:47:33.433Z,517.00
2023-04-08T11:48:33.346Z,517.00
2023-04-08T11:49:33.355Z,532.00
2023-04-08T11:50:33.347Z,531.00
2023-04-08T11:51:33.357Z,556.00
2023-04-08T11:52:33.367Z,563.00
2023-04-08T11:53:33.397Z,562.00
2023-04-08T11:54:33.412Z,553.00
2023-04-08T11:55:33.417Z,568.00
2023-04-08T11:56:33.427Z,537.00
2023-04-08T11:57:33.435Z,535.00
2023-04-08T11:58:33.433Z,545.00
2023-04-08T11:59:33.434Z,540.00
2023-04-08T12:00:33.473Z,535.00
2023-04-08T12:01:33.526Z,541.00
2023-04-08T12:02:33.585Z,567.00
2023-04-08T12:03:33.588Z,565.00
2023-04-08T12:04:33.616Z,558.00
2023-04-08T12:05:33.512Z,567.00
2023-04-08T12:06:33.508Z,563.00
2023-04-08T12:07:33.532Z,556.00
2023-04-08T12:08:33.553Z,526.00
2023-04-08T12:09:33.558Z,546.00
2023-04-08T12:10:33.560Z,570.00